createdAt,value
2019-05-01T00:00:22.977Z,69.65
2019-05-01T00:01:02.348Z,69.62
2019-05-01T00:01:46.381Z,69.63
2019-05-01T00:02:33.312Z,69.67
2019-05-01T00:03:28.022Z,69.81
2019-05-01T00:04:23.877Z,69.84
2019-05-01T00:05:07.496Z,69.98
2019-05-01T00:05:48.148Z,70.14
2019-05-01T00:06:28.551Z,70.17
2019-05-01T00:07:17.701Z,70.22
2019-05-01T00:07:53.801Z,70.57
2019-05-01T00:08:29.839Z,70.68
2019-05-01T00:09:08.466Z,70.61
2019-05-01T00:09:44.593Z,70.47
2019-05-01T00:10:21.870Z,70.45
2019-05-01T00:10:57.913Z,70.46
2019-05-01T00:11:33.956Z,70.41
2019-05-01T00:12:10.056Z,70.32
2019-05-01T00:12:46.148Z,70.21
2019-05-01T00:13:22.273Z,70.20
2019-05-01T00:13:58.444Z,70.14
2019-05-01T00:14:34.696Z,70.13
2019-05-01T00:15:11.046Z,70.14
2019-05-01T00:15:47.196Z,70.10
2019-05-01T00:16:23.390Z,70.09
2019-05-01T00:16:59.416Z,70.16
2019-05-01T00:17:35.588Z,70.25
2019-05-01T00:18:12.910Z,70.21
2019-05-01T00:18:49.472Z,70.22
2019-05-01T00:19:25.701Z,70.17
2019-05-01T00:20:01.805Z,70.17
2019-05-01T00:20:37.919Z,70.10
2019-05-01T00:21:13.940Z,70.11
2019-05-01T00:21:50.034Z,70.13
2019-05-01T00:22:26.144Z,70.09
2019-05-01T00:23:02.189Z,70.01
2019-05-01T00:23:39.354Z,69.97
2019-05-01T00:24:15.455Z,69.93
2019-05-01T00:24:51.568Z,69.87
2019-05-01T00:25:27.614Z,69.89
2019-05-01T00:26:03.833Z,69.88
2019-05-01T00:26:39.939Z,69.89
2019-05-01T00:27:16.139Z,69.84
2019-05-01T00:27:52.482Z,69.83
2019-05-01T00:28:28.574Z,69.92
2019-05-01T00:29:04.722Z,69.84
2019-05-01T00:29:40.830Z,69.84
2019-05-01T00:30:29.298Z,69.77
2019-05-01T00:30:56.362Z,69.77
2019-05-01T00:31:32.462Z,69.80
2019-05-01T00:32:08.995Z,69.78
2019-05-01T00:32:45.100Z,69.79
2019-05-01T00:33:21.112Z,69.78
2019-05-01T00:33:57.152Z,69.78
2019-05-01T00:34:33.330Z,69.83
2019-05-01T00:35:09.369Z,69.95
2019-05-01T00:35:46.607Z,70.03
2019-05-01T00:36:23.061Z,70.03
2019-05-01T00:36:59.600Z,70.03
2019-05-01T00:37:35.656Z,70.06
2019-05-01T00:38:11.798Z,70.07
2019-05-01T00:38:47.824Z,70.08
2019-05-01T00:39:23.868Z,70.04
2019-05-01T00:40:00.047Z,70.04
2019-05-01T00:40:36.387Z,70.08
2019-05-01T00:41:12.842Z,70.14
2019-05-01T00:41:48.869Z,70.20
2019-05-01T00:42:24.900Z,70.15
2019-05-01T00:43:00.918Z,70.18
2019-05-01T00:43:37.154Z,70.14
2019-05-01T00:44:13.288Z,70.09
2019-05-01T00:44:49.636Z,70.07
2019-05-01T00:45:25.798Z,70.07
2019-05-01T00:46:01.827Z,70.02
2019-05-01T00:46:37.941Z,70.11
2019-05-01T00:47:13.978Z,70.10
2019-05-01T00:47:50.085Z,70.07
2019-05-01T00:48:26.111Z,70.01
2019-05-01T00:49:02.769Z,69.97
2019-05-01T00:49:38.865Z,69.91
2019-05-01T00:50:14.903Z,69.92
2019-05-01T00:50:51.016Z,69.95
2019-05-01T00:51:28.016Z,69.93
2019-05-01T00:52:04.041Z,69.90
2019-05-01T00:52:40.062Z,69.92
2019-05-01T00:53:16.108Z,69.92
2019-05-01T00:53:52.345Z,69.95
2019-05-01T00:54:29.044Z,70.00
2019-05-01T00:55:23.615Z,69.97
2019-05-01T00:56:04.030Z,69.97
2019-05-01T00:56:57.800Z,70.28
2019-05-01T00:57:35.489Z,70.46
2019-05-01T00:58:16.521Z,70.75
2019-05-01T00:58:57.148Z,70.69
2019-05-01T00:59:34.210Z,70.68
2019-05-01T01:00:27.759Z,70.78
2019-05-01T01:01:05.484Z,71.08
2019-05-01T01:01:48.937Z,71.25
2019-05-01T01:02:26.925Z,71.20
2019-05-01T01:03:03.134Z,71.15
2019-05-01T01:03:40.172Z,71.06
2019-05-01T01:04:17.650Z,71.01
2019-05-01T01:04:53.691Z,70.97
2019-05-01T01:05:29.720Z,70.89
2019-05-01T01:06:06.261Z,70.85
2019-05-01T01:06:42.512Z,70.83
2019-05-01T01:07:18.532Z,70.79
2019-05-01T01:07:54.559Z,70.77
2019-05-01T01:08:30.582Z,70.72
2019-05-01T01:09:07.661Z,70.65
2019-05-01T01:09:45.283Z,70.66
2019-05-01T01:10:21.344Z,70.59
2019-05-01T01:10:57.694Z,70.54
2019-05-01T01:11:34.097Z,70.50
2019-05-01T01:12:10.116Z,70.46
2019-05-01T01:12:46.168Z,70.43
2019-05-01T01:13:22.209Z,70.45
2019-05-01T01:13:58.234Z,70.45
2019-05-01T01:14:34.376Z,70.47
2019-05-01T01:15:10.739Z,70.46
2019-05-01T01:15:47.069Z,70.40
2019-05-01T01:16:23.099Z,70.39
2019-05-01T01:16:59.195Z,70.40
2019-05-01T01:17:35.393Z,70.46
2019-05-01T01:18:11.516Z,70.43
2019-05-01T01:18:47.615Z,70.44
2019-05-01T01:19:23.656Z,70.66
2019-05-01T01:19:59.819Z,70.64
2019-05-01T01:20:35.953Z,70.53
2019-05-01T01:21:12.152Z,70.51
2019-05-01T01:21:48.299Z,70.52
2019-05-01T01:22:24.507Z,70.56
2019-05-01T01:23:00.550Z,70.57
2019-05-01T01:23:36.690Z,70.58
2019-05-01T01:24:13.024Z,70.55
2019-05-01T01:24:49.051Z,70.52
2019-05-01T01:25:25.060Z,70.65
2019-05-01T01:26:01.076Z,70.71
2019-05-01T01:26:38.074Z,70.68
2019-05-01T01:27:14.094Z,70.72
2019-05-01T01:27:50.335Z,70.67
2019-05-01T01:28:26.689Z,70.65
2019-05-01T01:29:03.097Z,70.72
2019-05-01T01:29:39.200Z,70.67
2019-05-01T01:30:15.240Z,70.67
2019-05-01T01:30:56.399Z,70.64
2019-05-01T01:31:29.187Z,70.65
2019-05-01T01:32:05.604Z,70.71
2019-05-01T01:32:42.076Z,70.77
2019-05-01T01:33:18.457Z,70.81
2019-05-01T01:33:54.487Z,70.80
2019-05-01T01:34:30.548Z,70.84
2019-05-01T01:35:07.591Z,70.80
2019-05-01T01:35:43.682Z,70.77
2019-05-01T01:36:19.781Z,70.77
2019-05-01T01:36:56.133Z,70.75
2019-05-01T01:37:32.280Z,70.71
2019-05-01T01:38:08.403Z,70.76
2019-05-01T01:38:44.593Z,70.82
2019-05-01T01:39:20.614Z,70.87
2019-05-01T01:39:56.729Z,70.91
2019-05-01T01:40:32.810Z,70.99
2019-05-01T01:41:11.142Z,71.07
2019-05-01T01:41:47.542Z,71.10
2019-05-01T01:42:24.550Z,71.17
2019-05-01T01:43:18.199Z,71.22
2019-05-01T01:43:56.012Z,71.23
2019-05-01T01:44:40.741Z,71.37
2019-05-01T01:45:18.504Z,71.43
2019-05-01T01:45:59.379Z,71.47
2019-05-01T01:46:37.041Z,71.43
2019-05-01T01:47:13.060Z,71.42
2019-05-01T01:48:06.869Z,71.43
2019-05-01T01:48:43.861Z,71.44
2019-05-01T01:49:20.068Z,71.71
2019-05-01T01:49:56.420Z,71.75
2019-05-01T01:50:32.570Z,71.79
2019-05-01T01:51:08.600Z,71.88
2019-05-01T01:51:44.704Z,71.87
2019-05-01T01:52:20.732Z,71.94
2019-05-01T01:52:56.758Z,71.92
2019-05-01T01:53:32.894Z,71.92
2019-05-01T01:54:09.247Z,72.03
2019-05-01T01:54:45.671Z,72.24
2019-05-01T01:55:21.702Z,72.30
2019-05-01T01:55:57.733Z,72.34
2019-05-01T01:56:33.772Z,72.56
2019-05-01T01:57:09.869Z,72.65
2019-05-01T01:57:45.926Z,72.60
2019-05-01T01:58:22.279Z,72.52
2019-05-01T01:58:58.508Z,72.39
2019-05-01T01:59:34.555Z,72.27
2019-05-01T02:00:12.326Z,72.15
2019-05-01T02:00:52.872Z,71.94
2019-05-01T02:01:30.659Z,71.83
2019-05-01T02:02:14.289Z,71.82
2019-05-01T02:02:52.040Z,71.76
2019-05-01T02:03:32.849Z,71.76
2019-05-01T02:04:15.635Z,71.79
2019-05-01T02:05:04.832Z,71.87
2019-05-01T02:05:42.565Z,72.25
2019-05-01T02:06:18.608Z,72.34
2019-05-01T02:06:54.757Z,72.30
2019-05-01T02:07:30.963Z,72.17
2019-05-01T02:08:09.029Z,72.06
2019-05-01T02:08:55.900Z,72.00
2019-05-01T02:09:22.963Z,71.94
2019-05-01T02:09:58.987Z,71.92
2019-05-01T02:10:42.571Z,71.84
2019-05-01T02:11:12.809Z,71.83
2019-05-01T02:11:48.906Z,71.86
2019-05-01T02:12:24.911Z,71.88
2019-05-01T02:13:00.942Z,71.89
2019-05-01T02:13:38.045Z,71.81
2019-05-01T02:14:14.073Z,71.70
2019-05-01T02:14:50.103Z,71.62
2019-05-01T02:15:26.147Z,71.65
2019-05-01T02:16:02.170Z,71.70
2019-05-01T02:16:38.443Z,71.74
2019-05-01T02:17:14.479Z,71.78
2019-05-01T02:17:50.585Z,71.70
2019-05-01T02:18:26.620Z,71.55
2019-05-01T02:19:02.661Z,71.37
2019-05-01T02:19:38.760Z,71.21
2019-05-01T02:20:14.855Z,71.07
2019-05-01T02:20:50.867Z,71.07
2019-05-01T02:21:26.876Z,71.02
2019-05-01T02:22:04.564Z,70.96
2019-05-01T02:22:40.585Z,70.95
2019-05-01T02:23:16.629Z,70.94
2019-05-01T02:23:52.639Z,70.94
2019-05-01T02:24:28.694Z,70.91
2019-05-01T02:25:05.852Z,70.91
2019-05-01T02:25:42.450Z,70.84
2019-05-01T02:26:21.641Z,70.82
2019-05-01T02:27:05.213Z,70.88
2019-05-01T02:27:51.831Z,70.97
2019-05-01T02:28:38.028Z,71.09
2019-05-01T02:29:18.404Z,71.24
2019-05-01T02:29:56.069Z,71.28
2019-05-01T02:30:32.101Z,71.25
2019-05-01T02:31:27.082Z,71.21
2019-05-01T02:31:51.833Z,71.08
2019-05-01T02:32:29.035Z,71.04
2019-05-01T02:33:05.055Z,70.93
2019-05-01T02:33:42.068Z,70.86
2019-05-01T02:34:18.195Z,70.73
2019-05-01T02:34:54.220Z,70.71
2019-05-01T02:35:30.605Z,70.78
2019-05-01T02:36:06.658Z,70.86
2019-05-01T02:36:42.689Z,70.87
2019-05-01T02:37:18.719Z,71.07
2019-05-01T02:37:54.801Z,71.12
2019-05-01T02:38:30.836Z,71.08
2019-05-01T02:39:08.604Z,71.07
2019-05-01T02:39:44.714Z,70.97
2019-05-01T02:40:38.844Z,70.96
2019-05-01T02:41:14.965Z,70.96
2019-05-01T02:41:52.469Z,71.12
2019-05-01T02:42:29.454Z,71.08
2019-05-01T02:43:05.547Z,70.98
2019-05-01T02:43:42.217Z,70.91
2019-05-01T02:44:30.021Z,70.88
2019-05-01T02:45:06.065Z,70.89
2019-05-01T02:45:42.542Z,71.08
2019-05-01T02:46:18.573Z,71.04
2019-05-01T02:46:54.660Z,70.98
2019-05-01T02:47:32.135Z,70.96
2019-05-01T02:48:08.321Z,71.05
2019-05-01T02:49:04.126Z,71.27
2019-05-01T02:49:55.240Z,71.40
2019-05-01T02:50:30.677Z,71.66
2019-05-01T02:51:06.443Z,71.79
2019-05-01T02:51:42.523Z,72.12
2019-05-01T02:52:18.560Z,72.09
2019-05-01T02:52:54.576Z,71.93
2019-05-01T02:53:31.130Z,71.81
2019-05-01T02:54:07.261Z,71.72
2019-05-01T02:54:43.692Z,71.76
2019-05-01T02:55:24.072Z,71.88
2019-05-01T02:56:18.668Z,72.08
2019-05-01T02:56:58.863Z,72.30
2019-05-01T02:57:34.882Z,72.34
2019-05-01T02:58:10.909Z,72.23
2019-05-01T02:58:47.026Z,72.11
2019-05-01T02:59:23.910Z,72.01
2019-05-01T02:59:59.943Z,71.94
2019-05-01T03:00:36.079Z,71.89
2019-05-01T03:01:14.287Z,71.85
2019-05-01T03:01:50.044Z,71.85
2019-05-01T03:02:26.076Z,71.85
2019-05-01T03:03:02.104Z,71.93
2019-05-01T03:03:38.124Z,71.91
2019-05-01T03:04:14.239Z,71.88
2019-05-01T03:04:50.456Z,72.00
2019-05-01T03:05:26.510Z,72.20
2019-05-01T03:06:02.604Z,72.29
2019-05-01T03:06:38.737Z,72.19
2019-05-01T03:07:15.271Z,72.06
2019-05-01T03:07:51.289Z,71.93
2019-05-01T03:08:27.320Z,71.79
2019-05-01T03:09:06.902Z,71.61
2019-05-01T03:09:42.980Z,71.42
2019-05-01T03:10:19.030Z,71.32
2019-05-01T03:10:55.083Z,71.29
2019-05-01T03:11:31.133Z,71.26
2019-05-01T03:12:07.142Z,71.13
2019-05-01T03:12:43.577Z,70.99
2019-05-01T03:13:19.616Z,70.90
2019-05-01T03:13:55.671Z,70.85
2019-05-01T03:14:31.703Z,70.93
2019-05-01T03:15:07.810Z,70.91
2019-05-01T03:15:43.867Z,70.95
2019-05-01T03:16:19.921Z,70.89
2019-05-01T03:16:57.019Z,70.88
2019-05-01T03:17:35.624Z,70.98
2019-05-01T03:18:16.234Z,71.04
2019-05-01T03:18:59.983Z,71.00
2019-05-01T03:19:37.662Z,70.91
2019-05-01T03:20:22.491Z,70.79
2019-05-01T03:21:11.939Z,70.51
2019-05-01T03:21:58.433Z,70.37
2019-05-01T03:22:39.751Z,70.19
2019-05-01T03:23:29.247Z,70.08
2019-05-01T03:24:11.324Z,69.93
2019-05-01T03:24:47.370Z,69.76
2019-05-01T03:25:23.567Z,69.46
2019-05-01T03:25:59.587Z,69.20
2019-05-01T03:26:35.790Z,69.06
2019-05-01T03:27:11.890Z,68.83
2019-05-01T03:27:47.930Z,68.62
2019-05-01T03:28:23.975Z,68.46
2019-05-01T03:29:00.007Z,68.34
2019-05-01T03:29:36.028Z,68.13
2019-05-01T03:30:12.064Z,68.03
2019-05-01T03:30:48.469Z,67.92
2019-05-01T03:31:24.507Z,67.87
2019-05-01T03:32:16.541Z,67.80
2019-05-01T03:32:39.619Z,67.62
2019-05-01T03:33:15.639Z,67.46
2019-05-01T03:33:51.675Z,67.36
2019-05-01T03:34:28.047Z,67.23
2019-05-01T03:35:05.590Z,67.22
2019-05-01T03:35:41.603Z,67.09
2019-05-01T03:36:18.680Z,67.10
2019-05-01T03:36:54.799Z,67.07
2019-05-01T03:37:30.826Z,66.91
2019-05-01T03:38:06.846Z,66.80
2019-05-01T03:38:42.877Z,66.77
2019-05-01T03:39:18.884Z,66.83
2019-05-01T03:39:54.913Z,66.86
2019-05-01T03:40:30.938Z,66.82
2019-05-01T03:41:06.968Z,66.78
2019-05-01T03:41:43.017Z,66.77
2019-05-01T03:42:19.032Z,66.76
2019-05-01T03:42:55.082Z,66.70
2019-05-01T03:43:31.598Z,66.61
2019-05-01T03:44:07.628Z,66.46
2019-05-01T03:44:43.775Z,66.31
2019-05-01T03:45:19.809Z,66.20
2019-05-01T03:45:55.959Z,66.09
2019-05-01T03:46:31.987Z,66.31
2019-05-01T03:47:08.197Z,66.42
2019-05-01T03:47:44.243Z,66.43
2019-05-01T03:48:21.328Z,66.34
2019-05-01T03:48:58.344Z,66.21
2019-05-01T03:49:34.385Z,66.20
2019-05-01T03:50:11.392Z,66.22
2019-05-01T03:50:47.708Z,66.21
2019-05-01T03:51:23.723Z,66.18
2019-05-01T03:51:59.781Z,66.20
2019-05-01T03:52:36.816Z,66.21
2019-05-01T03:53:12.857Z,66.25
2019-05-01T03:53:48.913Z,66.25
2019-05-01T03:54:24.980Z,66.28
2019-05-01T03:55:01.124Z,66.25
2019-05-01T03:55:37.607Z,66.34
2019-05-01T03:56:13.788Z,66.40
2019-05-01T03:56:49.803Z,66.45
2019-05-01T03:57:25.889Z,66.47
2019-05-01T03:58:01.989Z,66.44
2019-05-01T03:58:38.045Z,66.50
2019-05-01T03:59:14.120Z,66.59
2019-05-01T03:59:50.256Z,66.61
2019-05-01T04:00:39.891Z,66.55
2019-05-01T04:01:17.558Z,66.47
2019-05-01T04:02:11.419Z,66.55
2019-05-01T04:02:50.672Z,66.33
2019-05-01T04:03:31.082Z,66.29
2019-05-01T04:04:08.737Z,66.16
2019-05-01T04:04:44.793Z,66.18
2019-05-01T04:05:20.809Z,66.11
2019-05-01T04:05:56.935Z,66.08
2019-05-01T04:06:32.982Z,66.03
2019-05-01T04:07:08.968Z,65.89
2019-05-01T04:07:45.103Z,65.78
2019-05-01T04:08:21.127Z,65.66
2019-05-01T04:08:57.200Z,65.64
2019-05-01T04:09:33.242Z,65.76
2019-05-01T04:10:09.252Z,65.93
2019-05-01T04:10:46.138Z,66.02
2019-05-01T04:11:22.387Z,66.22
2019-05-01T04:11:59.410Z,66.44
2019-05-01T04:12:35.435Z,66.38
2019-05-01T04:13:11.462Z,66.39
2019-05-01T04:13:47.477Z,66.83
2019-05-01T04:14:23.681Z,67.10
2019-05-01T04:14:59.720Z,67.16
2019-05-01T04:15:35.822Z,67.27
2019-05-01T04:16:11.923Z,67.42
2019-05-01T04:16:49.581Z,67.55
2019-05-01T04:17:27.446Z,67.70
2019-05-01T04:18:05.124Z,67.85
2019-05-01T04:18:42.100Z,67.81
2019-05-01T04:19:18.220Z,67.78
2019-05-01T04:19:54.327Z,67.68
2019-05-01T04:20:30.425Z,67.52
2019-05-01T04:21:07.982Z,67.39
2019-05-01T04:21:45.627Z,67.40
2019-05-01T04:22:21.758Z,67.45
2019-05-01T04:22:57.855Z,67.46
2019-05-01T04:23:33.882Z,67.62
2019-05-01T04:24:09.901Z,67.67
2019-05-01T04:24:45.939Z,67.64
2019-05-01T04:25:22.188Z,67.79
2019-05-01T04:25:58.212Z,67.77
2019-05-01T04:26:34.227Z,67.93
2019-05-01T04:27:11.958Z,68.15
2019-05-01T04:27:49.617Z,68.53
2019-05-01T04:28:27.296Z,68.74
2019-05-01T04:29:16.534Z,68.88
2019-05-01T04:29:54.202Z,69.04
2019-05-01T04:30:31.915Z,69.26
2019-05-01T04:31:09.568Z,69.30
2019-05-01T04:31:47.226Z,69.31
2019-05-01T04:32:24.941Z,69.40
2019-05-01T04:33:02.577Z,69.36
2019-05-01T04:33:40.252Z,69.36
2019-05-01T04:34:20.950Z,69.35
2019-05-01T04:34:58.064Z,69.27
2019-05-01T04:35:52.100Z,69.49
2019-05-01T04:36:41.597Z,69.69
2019-05-01T04:37:19.284Z,69.73
2019-05-01T04:37:55.416Z,69.73
2019-05-01T04:38:31.440Z,69.67
2019-05-01T04:39:08.114Z,69.66
2019-05-01T04:39:44.134Z,69.80
2019-05-01T04:40:20.438Z,69.66
2019-05-01T04:40:56.506Z,69.55
2019-05-01T04:41:32.525Z,69.47
2019-05-01T04:42:08.671Z,69.30
2019-05-01T04:42:44.716Z,69.23
2019-05-01T04:43:20.740Z,69.12
2019-05-01T04:43:56.868Z,69.20
2019-05-01T04:44:33.650Z,69.09
2019-05-01T04:45:09.779Z,68.96
2019-05-01T04:45:45.908Z,68.83
2019-05-01T04:46:21.979Z,68.77
2019-05-01T04:46:58.503Z,68.62
2019-05-01T04:47:34.516Z,68.49
2019-05-01T04:48:10.725Z,68.45
2019-05-01T04:48:46.773Z,68.34
2019-05-01T04:49:23.876Z,68.19
2019-05-01T04:50:00.456Z,68.09
2019-05-01T04:50:36.554Z,67.83
2019-05-01T04:51:12.573Z,67.63
2019-05-01T04:51:49.671Z,67.49
2019-05-01T04:52:26.646Z,67.32
2019-05-01T04:53:02.655Z,67.33
2019-05-01T04:53:40.045Z,67.12
2019-05-01T04:54:16.239Z,67.00
2019-05-01T04:54:52.326Z,66.91
2019-05-01T04:55:28.352Z,66.74
2019-05-01T04:56:04.503Z,66.61
2019-05-01T04:56:40.521Z,66.61
2019-05-01T04:57:17.567Z,66.64
2019-05-01T04:57:53.631Z,66.55
2019-05-01T04:58:29.898Z,66.46
2019-05-01T04:59:06.019Z,66.34
2019-05-01T04:59:42.054Z,66.25
2019-05-01T05:00:18.143Z,66.25
2019-05-01T05:00:54.266Z,66.22
2019-05-01T05:01:35.610Z,66.01
2019-05-01T05:02:13.286Z,65.84
2019-05-01T05:03:03.574Z,65.85
2019-05-01T05:03:28.724Z,65.67
2019-05-01T05:04:04.755Z,65.62
2019-05-01T05:04:40.790Z,65.34
2019-05-01T05:05:16.823Z,65.27
2019-05-01T05:05:52.836Z,65.20
2019-05-01T05:06:28.871Z,65.16
2019-05-01T05:07:04.907Z,65.16
2019-05-01T05:07:40.947Z,65.21
2019-05-01T05:08:17.071Z,65.13
2019-05-01T05:08:53.092Z,65.13
2019-05-01T05:09:39.805Z,64.95
2019-05-01T05:10:15.827Z,65.04
2019-05-01T05:10:53.218Z,65.11
2019-05-01T05:11:30.882Z,65.10
2019-05-01T05:12:09.193Z,65.16
2019-05-01T05:12:52.827Z,65.21
2019-05-01T05:13:33.513Z,65.15
2019-05-01T05:14:17.095Z,65.15
2019-05-01T05:15:06.842Z,65.24
2019-05-01T05:15:44.502Z,65.35
2019-05-01T05:16:22.153Z,65.47
2019-05-01T05:17:08.589Z,65.20
2019-05-01T05:17:44.634Z,65.13
2019-05-01T05:18:21.746Z,65.17
2019-05-01T05:18:57.844Z,65.09
2019-05-01T05:19:33.869Z,65.05
2019-05-01T05:20:09.941Z,64.76
2019-05-01T05:20:45.972Z,64.56
2019-05-01T05:21:22.006Z,64.50
2019-05-01T05:21:58.044Z,64.46
2019-05-01T05:22:34.063Z,64.26
2019-05-01T05:23:10.062Z,64.26
2019-05-01T05:23:46.079Z,64.15
2019-05-01T05:24:22.216Z,64.06
2019-05-01T05:24:58.236Z,63.85
2019-05-01T05:25:34.506Z,63.74
2019-05-01T05:26:10.539Z,63.64
2019-05-01T05:26:46.584Z,63.42
2019-05-01T05:27:23.783Z,63.03
2019-05-01T05:27:59.840Z,62.83
2019-05-01T05:28:36.076Z,62.74
2019-05-01T05:29:13.242Z,62.50
2019-05-01T05:29:49.499Z,62.32
2019-05-01T05:30:25.782Z,62.12
2019-05-01T05:31:02.103Z,61.96
2019-05-01T05:31:38.176Z,61.85
2019-05-01T05:32:14.227Z,61.86
2019-05-01T05:32:50.344Z,61.91
2019-05-01T05:33:27.127Z,61.89
2019-05-01T05:34:03.311Z,61.90
2019-05-01T05:34:39.324Z,61.48
2019-05-01T05:35:15.444Z,61.41
2019-05-01T05:35:51.479Z,61.41
2019-05-01T05:36:28.578Z,61.47
2019-05-01T05:37:06.716Z,61.45
2019-05-01T05:37:56.122Z,61.55
2019-05-01T05:38:39.622Z,61.72
2019-05-01T05:39:23.098Z,61.81
2019-05-01T05:40:00.398Z,62.00
2019-05-01T05:40:37.504Z,61.86
2019-05-01T05:41:13.807Z,62.08
2019-05-01T05:41:49.814Z,62.02
2019-05-01T05:42:25.956Z,62.08
2019-05-01T05:43:02.088Z,62.10
2019-05-01T05:43:38.146Z,62.08
2019-05-01T05:44:14.165Z,62.02
2019-05-01T05:44:50.200Z,62.14
2019-05-01T05:45:26.725Z,62.08
2019-05-01T05:46:03.091Z,61.94
2019-05-01T05:46:39.201Z,61.86
2019-05-01T05:47:15.228Z,61.63
2019-05-01T05:47:51.245Z,61.54
2019-05-01T05:48:27.278Z,61.36
2019-05-01T05:49:03.405Z,61.30
2019-05-01T05:49:39.434Z,60.93
2019-05-01T05:50:17.152Z,60.87
2019-05-01T05:50:57.686Z,60.78
2019-05-01T05:51:35.407Z,60.41
2019-05-01T05:52:16.186Z,60.39
2019-05-01T05:53:07.017Z,60.20
2019-05-01T05:53:44.695Z,60.01
2019-05-01T05:54:31.897Z,59.99
2019-05-01T05:55:12.615Z,59.73
2019-05-01T05:55:56.877Z,59.66
2019-05-01T05:56:41.144Z,59.55
2019-05-01T05:57:30.432Z,59.54
2019-05-01T05:58:08.254Z,59.35
2019-05-01T05:58:46.582Z,59.42
2019-05-01T05:59:25.234Z,59.20
2019-05-01T06:00:02.899Z,59.09
2019-05-01T06:00:40.638Z,58.97
2019-05-01T06:01:34.372Z,58.77
2019-05-01T06:02:12.277Z,58.62
2019-05-01T06:02:49.961Z,58.71
2019-05-01T06:03:46.659Z,58.64
2019-05-01T06:04:36.339Z,58.52
2019-05-01T06:05:16.935Z,58.63
2019-05-01T06:05:57.456Z,58.54
2019-05-01T06:06:35.159Z,58.30
2019-05-01T06:07:12.884Z,58.08
2019-05-01T06:08:06.277Z,58.00
2019-05-01T06:08:42.316Z,57.80
2019-05-01T06:09:18.347Z,57.98
2019-05-01T06:10:05.769Z,57.98
2019-05-01T06:10:46.541Z,58.23
2019-05-01T06:11:23.592Z,58.45
2019-05-01T06:12:04.833Z,58.54
2019-05-01T06:12:46.752Z,58.40
2019-05-01T06:13:23.093Z,58.27
2019-05-01T06:14:15.881Z,58.07
2019-05-01T06:14:53.564Z,57.88
2019-05-01T06:15:41.185Z,57.87
2019-05-01T06:16:17.396Z,57.46
2019-05-01T06:16:55.154Z,57.15
2019-05-01T06:17:32.812Z,56.84
2019-05-01T06:18:11.491Z,56.72
2019-05-01T06:18:49.159Z,56.25
2019-05-01T06:19:26.811Z,56.08
2019-05-01T06:20:14.111Z,56.02
2019-05-01T06:20:51.878Z,55.91
2019-05-01T06:21:36.390Z,55.96
2019-05-01T06:22:22.786Z,55.98
2019-05-01T06:23:09.285Z,56.30
2019-05-01T06:24:05.746Z,56.34
2019-05-01T06:24:40.547Z,56.35
2019-05-01T06:25:25.455Z,56.45
2019-05-01T06:26:04.258Z,56.37
2019-05-01T06:26:40.356Z,56.19
2019-05-01T06:27:16.442Z,55.88
2019-05-01T06:27:52.459Z,55.61
2019-05-01T06:28:29.628Z,55.20
2019-05-01T06:29:06.836Z,55.04
2019-05-01T06:29:42.859Z,54.81
2019-05-01T06:30:18.874Z,54.30
2019-05-01T06:30:56.542Z,54.13
2019-05-01T06:31:32.704Z,53.85
2019-05-01T06:32:08.803Z,53.52
2019-05-01T06:32:44.822Z,53.43
2019-05-01T06:33:20.871Z,53.26
2019-05-01T06:33:56.943Z,53.43
2019-05-01T06:34:32.989Z,53.07
2019-05-01T06:35:09.022Z,52.88
2019-05-01T06:35:46.017Z,52.78
2019-05-01T06:36:23.864Z,52.28
2019-05-01T06:36:59.755Z,51.97
2019-05-01T06:38:00.762Z,52.22
2019-05-01T06:38:36.240Z,52.05
2019-05-01T06:39:13.386Z,52.39
2019-05-01T06:39:49.849Z,52.11
2019-05-01T06:40:27.551Z,52.17
2019-05-01T06:41:03.650Z,52.09
2019-05-01T06:41:42.779Z,51.98
2019-05-01T06:42:19.288Z,52.09
2019-05-01T06:42:55.513Z,52.26
2019-05-01T06:43:33.295Z,52.27
2019-05-01T06:44:17.818Z,52.33
2019-05-01T06:44:55.507Z,52.45
2019-05-01T06:45:32.919Z,52.69
2019-05-01T06:46:13.180Z,52.85
2019-05-01T06:46:50.849Z,53.20
2019-05-01T06:47:28.524Z,53.45
2019-05-01T06:48:06.174Z,53.64
2019-05-01T06:48:48.801Z,53.81
2019-05-01T06:49:28.929Z,53.96
2019-05-01T06:50:07.520Z,53.90
2019-05-01T06:50:54.362Z,54.08
2019-05-01T06:51:35.200Z,54.14
2019-05-01T06:52:12.239Z,54.10
2019-05-01T06:52:48.174Z,54.34
2019-05-01T06:53:24.225Z,54.36
2019-05-01T06:54:00.375Z,54.16
2019-05-01T06:54:36.454Z,53.83
2019-05-01T06:55:12.493Z,53.75
2019-05-01T06:55:51.461Z,53.64
2019-05-01T06:56:26.411Z,53.51
2019-05-01T06:57:02.626Z,53.60
2019-05-01T06:57:43.963Z,53.40
2019-05-01T06:58:20.470Z,53.36
2019-05-01T06:58:55.216Z,53.35
2019-05-01T06:59:33.426Z,53.33
2019-05-01T07:00:11.275Z,52.99
2019-05-01T07:00:47.372Z,53.07
2019-05-01T07:01:24.073Z,53.04
2019-05-01T07:02:18.651Z,52.89
2019-05-01T07:02:54.786Z,53.01
2019-05-01T07:03:30.823Z,52.86
2019-05-01T07:04:14.087Z,53.06
2019-05-01T07:04:51.515Z,53.21
2019-05-01T07:05:27.715Z,53.11
2019-05-01T07:06:13.784Z,52.97
2019-05-01T07:06:41.689Z,52.81
2019-05-01T07:07:25.322Z,52.90
2019-05-01T07:07:55.873Z,52.81
2019-05-01T07:08:34.226Z,52.53
2019-05-01T07:09:12.156Z,52.27
2019-05-01T07:09:49.395Z,52.01
2019-05-01T07:10:31.582Z,51.94
2019-05-01T07:11:04.569Z,51.87
2019-05-01T07:11:42.287Z,51.92
2019-05-01T07:12:23.806Z,51.63
2019-05-01T07:12:59.920Z,51.42
2019-05-01T07:13:40.043Z,51.63
2019-05-01T07:14:16.589Z,51.46
2019-05-01T07:14:53.171Z,51.38
2019-05-01T07:15:29.326Z,51.33
2019-05-01T07:16:05.444Z,51.25
2019-05-01T07:16:42.653Z,51.10
2019-05-01T07:17:18.780Z,50.62
2019-05-01T07:17:54.893Z,50.49
2019-05-01T07:18:31.020Z,49.97
2019-05-01T07:19:07.772Z,49.83
2019-05-01T07:19:57.452Z,49.59
2019-05-01T07:20:35.418Z,49.50
2019-05-01T07:21:11.439Z,49.27
2019-05-01T07:21:47.470Z,49.20
2019-05-01T07:22:23.485Z,48.95
2019-05-01T07:22:59.615Z,48.87
2019-05-01T07:23:35.655Z,48.93
2019-05-01T07:24:11.779Z,49.04
2019-05-01T07:24:49.141Z,48.64
2019-05-01T07:25:25.387Z,48.45
2019-05-01T07:26:01.552Z,48.02
2019-05-01T07:26:37.579Z,48.33
2019-05-01T07:27:13.617Z,48.09
2019-05-01T07:27:53.937Z,47.94
2019-05-01T07:28:34.255Z,48.10
2019-05-01T07:29:24.255Z,48.19
2019-05-01T07:30:04.857Z,48.17
2019-05-01T07:30:50.084Z,48.26
2019-05-01T07:31:25.915Z,48.58
2019-05-01T07:32:06.431Z,48.06
2019-05-01T07:32:41.166Z,47.97
2019-05-01T07:33:17.966Z,47.70
2019-05-01T07:33:54.038Z,47.73
2019-05-01T07:34:31.409Z,47.88
2019-05-01T07:35:07.450Z,47.96
2019-05-01T07:35:43.750Z,48.26
2019-05-01T07:36:19.778Z,47.88
2019-05-01T07:36:55.841Z,47.58
2019-05-01T07:37:31.885Z,47.71
2019-05-01T07:38:10.808Z,47.39
2019-05-01T07:38:46.847Z,47.01
2019-05-01T07:39:23.837Z,46.83
2019-05-01T07:39:59.837Z,46.48
2019-05-01T07:40:36.055Z,46.15
2019-05-01T07:41:12.480Z,45.91
2019-05-01T07:41:49.321Z,45.70
2019-05-01T07:42:27.159Z,45.63
2019-05-01T07:43:04.838Z,45.57
2019-05-01T07:43:59.606Z,45.64
2019-05-01T07:44:38.277Z,45.81
2019-05-01T07:45:31.941Z,46.15
2019-05-01T07:46:27.580Z,46.14
2019-05-01T07:47:20.208Z,46.03
2019-05-01T07:48:01.114Z,46.18
2019-05-01T07:48:41.554Z,45.77
2019-05-01T07:49:17.725Z,45.68
2019-05-01T07:49:54.944Z,45.71
2019-05-01T07:50:32.609Z,45.71
2019-05-01T07:51:09.833Z,45.88
2019-05-01T07:51:53.079Z,45.79
2019-05-01T07:52:29.111Z,45.69
2019-05-01T07:53:05.201Z,45.78
2019-05-01T07:53:41.225Z,45.95
2019-05-01T07:54:17.330Z,45.85
2019-05-01T07:54:54.386Z,45.85
2019-05-01T07:55:36.104Z,45.73
2019-05-01T07:56:12.215Z,45.63
2019-05-01T07:56:48.235Z,45.61
2019-05-01T07:57:24.274Z,45.54
2019-05-01T07:58:00.305Z,45.26
2019-05-01T07:58:36.542Z,45.17
2019-05-01T07:59:12.582Z,45.23
2019-05-01T07:59:48.618Z,45.08
2019-05-01T08:00:29.542Z,45.28
2019-05-01T08:01:13.221Z,45.23
2019-05-01T08:01:49.907Z,45.46
2019-05-01T08:02:30.981Z,45.83
2019-05-01T08:03:07.193Z,45.78
2019-05-01T08:03:42.700Z,45.67
2019-05-01T08:04:35.281Z,45.68
2019-05-01T08:04:57.241Z,45.71
2019-05-01T08:05:33.285Z,45.48
2019-05-01T08:06:09.330Z,45.36
2019-05-01T08:06:45.353Z,45.51
2019-05-01T08:07:21.397Z,45.81
2019-05-01T08:07:57.417Z,45.79
2019-05-01T08:08:33.462Z,45.91